Craftsbury, Vermont
Current Conditions -  °F | °C
As of 5:54 AM on Thursday 27 Nov 2014 (Local Time) from KMVL Reporting Station
Overcast Overcast  
Wind Chill: 21°   Ceiling: 2400
Heat Index: 26°   Visibility: 10mi
Dew Point: 22°   Wind: 5mph
Humidity: 84%   Direction: 30°NNE
Pressure: 29.93"   Gusts: NA
Location:  44.64°N, 72.37°W
Report Text: KMVL 271054Z AUTO 03004KT 10SM SCT019 BKN024 OVC055 M03/M06 A2993 RMK AO2 SNE43 SLP144 P0000 T10331056 TSNO
Loading
Personal Weather Stations






























Interactive Weather Map New forecast layout! Learn more

10-Day Weather Forecast

Advertisements
Track Severe Weather on mobile